Airport View

Enter AWOS ICAO identifier for current METAR.

KFNL for example

KPIT 052351Z 00000KT 10SM SCT250 M01/M09 A3036 RMK AO2 SLP304 T10061089 10022 21011 52011

6 Feb 2016 00:02

Phone: 412-472-0145

Other Area AWOS: 42PN - KAGC - KBVI - KBTP

TAF KPIT 052344Z 0600/0706 VRB03KT P6SM SCT200 FM060600 20004KT P6SM BKN040 FM061600 24010KT P6SM SCT035